createdAt,value
2017-11-13T00:00:34.425Z,5.43
2017-11-13T00:03:03.208Z,5.95
2017-11-13T00:05:31.965Z,5.50
2017-11-13T00:08:00.698Z,6.00
2017-11-13T00:10:29.734Z,8.27
2017-11-13T00:12:59.240Z,6.40
2017-11-13T00:15:28.900Z,6.80
2017-11-13T00:17:57.661Z,8.07
2017-11-13T00:20:26.397Z,7.18
2017-11-13T00:22:55.223Z,6.80
2017-11-13T00:25:24.828Z,6.90
2017-11-13T00:27:54.327Z,7.07
2017-11-13T00:30:23.892Z,6.60
2017-11-13T00:32:52.624Z,7.18
2017-11-13T00:35:22.136Z,6.78
2017-11-13T00:37:51.143Z,7.00
2017-11-13T00:40:20.633Z,7.53
2017-11-13T00:42:50.157Z,7.28
2017-11-13T00:45:18.961Z,6.37
2017-11-13T00:47:47.693Z,7.65
2017-11-13T00:50:16.420Z,8.10
2017-11-13T00:52:45.181Z,8.75
2017-11-13T00:55:13.907Z,8.73
2017-11-13T00:57:42.659Z,6.45
2017-11-13T01:00:10.700Z,7.53
2017-11-13T01:02:39.428Z,7.30
2017-11-13T01:05:08.165Z,7.55
2017-11-13T01:07:36.887Z,8.00
2017-11-13T01:10:05.620Z,8.07
2017-11-13T01:12:34.368Z,7.68
2017-11-13T01:15:03.138Z,8.15
2017-11-13T01:17:31.873Z,7.43
2017-11-13T01:20:01.397Z,11.27
2017-11-13T01:22:30.121Z,9.07
2017-11-13T01:24:58.853Z,7.80
2017-11-13T01:27:27.599Z,8.10
2017-11-13T01:29:56.329Z,7.72
2017-11-13T01:32:25.845Z,7.97
2017-11-13T01:34:54.868Z,7.37
2017-11-13T01:37:23.610Z,7.45
2017-11-13T01:39:52.748Z,9.07
2017-11-13T01:42:21.634Z,9.43
2017-11-13T01:44:50.377Z,8.70
2017-11-13T01:47:18.789Z,9.88
2017-11-13T01:49:47.531Z,7.87
2017-11-13T01:52:16.269Z,8.40
2017-11-13T01:54:45.033Z,7.60
2017-11-13T01:57:14.348Z,6.60
2017-11-13T01:59:43.857Z,7.75
2017-11-13T02:02:13.347Z,7.93
2017-11-13T02:04:43.020Z,12.45
2017-11-13T02:07:11.121Z,7.40
2017-11-13T02:09:39.514Z,8.88
2017-11-13T02:12:08.267Z,7.30
2017-11-13T02:14:36.648Z,7.87
2017-11-13T02:17:05.216Z,8.52
2017-11-13T02:19:33.277Z,10.25
2017-11-13T02:22:01.320Z,7.62
2017-11-13T02:24:30.492Z,8.30
2017-11-13T02:26:58.537Z,10.57
2017-11-13T02:29:26.562Z,8.95
2017-11-13T02:31:55.386Z,7.87
2017-11-13T02:34:23.467Z,9.52
2017-11-13T02:36:51.569Z,9.70
2017-11-13T02:39:19.612Z,7.72
2017-11-13T02:41:47.668Z,8.75
2017-11-13T02:44:15.700Z,9.00
2017-11-13T02:46:43.795Z,8.23
2017-11-13T02:49:12.984Z,9.10
2017-11-13T02:51:41.653Z,8.70
2017-11-13T02:54:09.703Z,14.02
2017-11-13T02:56:37.731Z,9.77
2017-11-13T02:59:05.770Z,9.10
2017-11-13T03:01:34.506Z,9.70
2017-11-13T03:04:03.264Z,13.02
2017-11-13T03:06:32.763Z,9.20
2017-11-13T03:09:02.285Z,13.60
2017-11-13T03:11:31.836Z,9.52
2017-11-13T03:14:00.594Z,10.73
2017-11-13T03:16:29.365Z,9.60
2017-11-13T03:18:58.905Z,10.02
2017-11-13T03:21:27.763Z,9.52
2017-11-13T03:23:57.293Z,9.20
2017-11-13T03:26:25.691Z,10.35
2017-11-13T03:28:54.412Z,8.77
2017-11-13T03:31:22.817Z,17.00
2017-11-13T03:33:52.321Z,11.43
2017-11-13T03:36:21.826Z,8.52
2017-11-13T03:38:50.562Z,8.95
2017-11-13T03:41:19.333Z,11.80
2017-11-13T03:43:48.057Z,8.88
2017-11-13T03:46:16.801Z,7.60
2017-11-13T03:48:45.534Z,8.55
2017-11-13T03:51:14.336Z,8.68
2017-11-13T03:53:43.065Z,9.00
2017-11-13T03:56:12.572Z,8.63
2017-11-13T03:58:41.312Z,11.93
2017-11-13T04:01:10.145Z,10.27
2017-11-13T04:03:39.649Z,10.63
2017-11-13T04:06:09.164Z,9.60
2017-11-13T04:08:38.677Z,9.90
2017-11-13T04:11:07.499Z,9.63
2017-11-13T04:13:36.243Z,10.65
2017-11-13T04:16:05.869Z,12.70
2017-11-13T04:18:34.613Z,8.85
2017-11-13T04:21:03.348Z,9.13
2017-11-13T04:23:32.116Z,12.37
2017-11-13T04:26:01.799Z,8.25
2017-11-13T04:28:30.552Z,9.60
2017-11-13T04:30:59.288Z,9.20
2017-11-13T04:33:28.037Z,12.27
2017-11-13T04:35:56.777Z,9.70
2017-11-13T04:38:26.292Z,9.80
2017-11-13T04:40:55.797Z,10.73
2017-11-13T04:43:25.432Z,9.05
2017-11-13T04:45:54.176Z,12.27
2017-11-13T04:48:23.844Z,10.93
2017-11-13T04:50:52.607Z,10.80
2017-11-13T04:53:21.336Z,11.85
2017-11-13T04:55:50.085Z,10.80
2017-11-13T04:58:18.833Z,12.27
2017-11-13T05:00:47.618Z,11.55
2017-11-13T05:03:17.292Z,11.30
2017-11-13T05:05:45.444Z,12.77
2017-11-13T05:08:14.174Z,9.32
2017-11-13T05:10:42.920Z,11.20
2017-11-13T05:13:11.249Z,14.10
2017-11-13T05:15:39.982Z,13.45
2017-11-13T05:18:09.303Z,12.10
2017-11-13T05:20:37.863Z,11.98
2017-11-13T05:23:07.385Z,12.93
2017-11-13T05:25:35.783Z,12.40
2017-11-13T05:28:04.881Z,10.82
2017-11-13T05:30:33.756Z,11.70
2017-11-13T05:33:02.514Z,12.55
2017-11-13T05:35:32.184Z,12.27
2017-11-13T05:38:00.952Z,11.50
2017-11-13T05:40:29.722Z,11.65
2017-11-13T05:42:59.017Z,13.02
2017-11-13T05:45:28.530Z,12.77
2017-11-13T05:47:57.428Z,15.38
2017-11-13T05:50:26.416Z,13.32
2017-11-13T05:52:55.180Z,11.73
2017-11-13T05:55:24.139Z,13.18
2017-11-13T05:57:52.892Z,12.93
2017-11-13T06:00:21.896Z,15.40
2017-11-13T06:02:50.636Z,13.52
2017-11-13T06:05:19.400Z,12.57
2017-11-13T06:07:48.187Z,14.02
2017-11-13T06:10:16.948Z,13.57
2017-11-13T06:12:45.717Z,15.32
2017-11-13T06:15:15.248Z,13.95
2017-11-13T06:17:44.241Z,13.60
2017-11-13T06:20:13.024Z,14.85
2017-11-13T06:22:42.693Z,13.02
2017-11-13T06:25:11.477Z,19.52
2017-11-13T06:27:40.409Z,13.52
2017-11-13T06:30:09.173Z,16.10
2017-11-13T06:32:38.690Z,17.75
2017-11-13T06:35:08.266Z,16.77
2017-11-13T06:37:37.055Z,17.25
2017-11-13T06:40:05.816Z,19.60
2017-11-13T06:42:34.616Z,15.85
2017-11-13T06:45:03.385Z,16.70
2017-11-13T06:47:32.141Z,16.27
2017-11-13T06:50:01.666Z,16.42
2017-11-13T06:52:30.687Z,19.80
2017-11-13T06:54:59.528Z,16.05
2017-11-13T06:57:29.056Z,16.65
2017-11-13T06:59:57.960Z,20.33
2017-11-13T07:02:26.707Z,17.00
2017-11-13T07:04:56.979Z,17.48
2017-11-13T07:07:25.722Z,17.48
2017-11-13T07:09:54.487Z,15.75
2017-11-13T07:12:23.232Z,19.87
2017-11-13T07:14:52.016Z,18.70
2017-11-13T07:17:21.548Z,18.50
2017-11-13T07:19:50.318Z,16.58
2017-11-13T07:22:19.141Z,16.83
2017-11-13T07:24:47.914Z,18.40
2017-11-13T07:27:16.816Z,15.63
2017-11-13T07:29:45.372Z,14.98
2017-11-13T07:32:14.137Z,14.70
2017-11-13T07:34:42.909Z,20.52
2017-11-13T07:37:11.677Z,17.65
2017-11-13T07:39:40.429Z,21.15
2017-11-13T07:42:09.012Z,15.35
2017-11-13T07:44:37.581Z,16.60
2017-11-13T07:47:07.165Z,14.57
2017-11-13T07:49:36.012Z,16.08
2017-11-13T07:52:04.760Z,17.35
2017-11-13T07:54:33.528Z,14.68
2017-11-13T07:57:02.282Z,16.20
2017-11-13T07:59:31.061Z,15.77
2017-11-13T08:01:59.807Z,14.45
2017-11-13T08:04:28.569Z,15.40
2017-11-13T08:06:57.312Z,15.18
2017-11-13T08:09:26.836Z,17.95
2017-11-13T08:11:55.716Z,16.27
2017-11-13T08:14:25.239Z,12.20
2017-11-13T08:16:54.072Z,12.80
2017-11-13T08:19:22.813Z,12.63
2017-11-13T08:21:51.596Z,15.20
2017-11-13T08:24:20.340Z,12.32
2017-11-13T08:26:49.111Z,13.32
2017-11-13T08:29:17.587Z,13.30
2017-11-13T08:31:46.330Z,12.30
2017-11-13T08:34:14.892Z,8.52
2017-11-13T08:36:44.133Z,9.63
2017-11-13T08:39:12.588Z,7.87
2017-11-13T08:41:41.337Z,6.60
2017-11-13T08:44:10.136Z,8.55
2017-11-13T08:46:38.863Z,6.90
2017-11-13T08:49:07.429Z,9.23
2017-11-13T08:51:36.172Z,7.97
2017-11-13T08:54:04.905Z,7.87
2017-11-13T08:56:33.661Z,8.38
2017-11-13T08:59:02.153Z,8.03
2017-11-13T09:01:30.637Z,9.80
2017-11-13T09:03:59.864Z,9.10
2017-11-13T09:06:29.104Z,8.60
2017-11-13T09:08:57.600Z,13.53
2017-11-13T09:11:26.084Z,12.27
2017-11-13T09:13:54.555Z,11.50
2017-11-13T09:16:23.048Z,11.97
2017-11-13T09:18:51.521Z,14.43
2017-11-13T09:21:20.027Z,12.50
2017-11-13T09:23:48.549Z,13.90
2017-11-13T09:26:17.027Z,13.50
2017-11-13T09:28:45.512Z,12.03
2017-11-13T09:31:13.988Z,12.87
2017-11-13T09:33:42.532Z,15.43
2017-11-13T09:36:10.648Z,13.03
2017-11-13T09:38:40.296Z,16.17
2017-11-13T09:41:09.076Z,13.00
2017-11-13T09:43:38.068Z,13.65
2017-11-13T09:46:06.879Z,10.95
2017-11-13T09:48:35.365Z,11.48
2017-11-13T09:51:03.863Z,11.43
2017-11-13T09:53:32.672Z,13.05
2017-11-13T09:56:01.922Z,9.90
2017-11-13T09:58:30.721Z,11.20
2017-11-13T10:00:59.628Z,8.85
2017-11-13T10:03:28.414Z,8.25
2017-11-13T10:05:57.002Z,11.10
2017-11-13T10:08:25.994Z,15.20
2017-11-13T10:10:54.567Z,11.60
2017-11-13T10:13:23.117Z,12.10
2017-11-13T10:15:51.707Z,10.57
2017-11-13T10:18:21.264Z,12.45
2017-11-13T10:20:50.221Z,17.00
2017-11-13T10:23:18.477Z,12.90
2017-11-13T10:25:46.446Z,12.00
2017-11-13T10:28:14.749Z,12.10
2017-11-13T10:30:43.772Z,9.50
2017-11-13T10:33:12.162Z,11.20
2017-11-13T10:35:41.478Z,11.67
2017-11-13T10:38:10.761Z,8.03
2017-11-13T10:40:39.345Z,10.43
2017-11-13T10:43:08.669Z,9.90
2017-11-13T10:45:36.852Z,11.80
2017-11-13T10:48:05.359Z,9.27
2017-11-13T10:50:33.889Z,9.00
2017-11-13T10:53:02.199Z,9.50
2017-11-13T10:55:30.539Z,12.93
2017-11-13T10:57:58.859Z,9.50
2017-11-13T11:00:26.509Z,12.63
2017-11-13T11:02:54.948Z,11.47
2017-11-13T11:05:23.292Z,8.50
2017-11-13T11:07:51.644Z,10.80
2017-11-13T11:10:20.792Z,11.80
2017-11-13T11:12:49.120Z,11.10
2017-11-13T11:15:33.998Z,7.80
2017-11-13T11:18:05.793Z,8.03
2017-11-13T11:20:35.041Z,7.87
2017-11-13T11:23:04.229Z,8.90
2017-11-13T11:25:33.061Z,8.07
2017-11-13T11:28:01.401Z,10.43
2017-11-13T11:30:48.589Z,10.30
2017-11-13T11:33:27.568Z,10.83
2017-11-13T11:36:15.834Z,11.17
2017-11-13T11:38:44.344Z,11.90
2017-11-13T11:41:13.616Z,12.40
2017-11-13T11:43:42.008Z,14.27
2017-11-13T11:46:10.419Z,13.07
2017-11-13T11:48:42.298Z,11.50
2017-11-13T11:51:10.811Z,11.80
2017-11-13T11:53:40.905Z,12.27
2017-11-13T11:56:19.296Z,15.43
2017-11-13T11:58:47.271Z,14.37
2017-11-13T12:01:15.234Z,16.57
2017-11-13T12:03:43.681Z,12.20
2017-11-13T12:06:13.096Z,13.13
2017-11-13T12:08:41.424Z,12.67
2017-11-13T12:11:09.927Z,16.90
2017-11-13T12:13:39.281Z,15.13
2017-11-13T12:16:07.841Z,15.83
2017-11-13T12:18:36.411Z,13.80
2017-11-13T12:21:05.005Z,19.77
2017-11-13T12:23:33.565Z,14.93
2017-11-13T12:26:02.116Z,21.23
2017-11-13T12:28:30.609Z,12.10
2017-11-13T12:30:59.117Z,10.63
2017-11-13T12:33:28.619Z,14.33
2017-11-13T12:35:58.036Z,10.70
2017-11-13T12:38:27.335Z,12.53
2017-11-13T12:40:56.620Z,15.83
2017-11-13T12:43:25.156Z,21.87
2017-11-13T12:45:53.688Z,12.50
2017-11-13T12:48:22.311Z,14.37
2017-11-13T12:50:50.827Z,13.47
2017-11-13T12:53:19.026Z,13.47
2017-11-13T12:55:49.044Z,11.40
2017-11-13T12:58:17.201Z,9.00
2017-11-13T13:00:45.380Z,12.07
2017-11-13T13:03:13.879Z,8.93
2017-11-13T13:05:42.730Z,9.90
2017-11-13T13:08:11.236Z,8.60
2017-11-13T13:10:39.748Z,11.00
2017-11-13T13:13:08.356Z,13.00
2017-11-13T13:15:36.898Z,16.07
2017-11-13T13:18:05.412Z,12.87
2017-11-13T13:20:34.690Z,9.63
2017-11-13T13:23:03.214Z,11.47
2017-11-13T13:25:31.528Z,11.73
2017-11-13T13:28:00.062Z,7.50
2017-11-13T13:30:29.364Z,5.83
2017-11-13T13:32:58.645Z,5.23
2017-11-13T13:35:26.979Z,4.97
2017-11-13T13:37:55.486Z,5.27
2017-11-13T13:40:23.852Z,5.57
2017-11-13T13:42:52.388Z,5.33
2017-11-13T13:45:21.684Z,5.73
2017-11-13T13:47:50.994Z,5.43
2017-11-13T13:50:19.562Z,6.10
2017-11-13T13:52:48.297Z,11.67
2017-11-13T13:55:16.891Z,8.63
2017-11-13T13:57:45.225Z,8.10
2017-11-13T14:00:14.452Z,8.40
2017-11-13T14:02:42.980Z,9.47
2017-11-13T14:05:11.488Z,8.00
2017-11-13T14:07:40.475Z,10.57
2017-11-13T14:10:09.009Z,10.00
2017-11-13T14:12:37.544Z,13.80
2017-11-13T14:15:06.825Z,9.27
2017-11-13T14:17:35.368Z,9.20
2017-11-13T14:20:03.877Z,9.70
2017-11-13T14:22:32.548Z,7.10
2017-11-13T14:25:01.137Z,6.37
2017-11-13T14:27:29.648Z,9.60
2017-11-13T14:29:57.997Z,6.70
2017-11-13T14:32:26.321Z,6.63
2017-11-13T14:34:54.836Z,10.23
2017-11-13T14:37:23.352Z,6.80
2017-11-13T14:39:51.865Z,6.17
2017-11-13T14:42:20.614Z,11.23
2017-11-13T14:44:49.240Z,16.23
2017-11-13T14:47:17.897Z,9.53
2017-11-13T14:49:46.517Z,7.43
2017-11-13T14:52:15.100Z,7.87
2017-11-13T14:54:43.762Z,7.90
2017-11-13T14:57:12.300Z,11.77
2017-11-13T14:59:40.828Z,15.80
2017-11-13T15:02:09.360Z,8.30
2017-11-13T15:04:38.622Z,8.87
2017-11-13T15:07:07.104Z,7.60
2017-11-13T15:09:35.572Z,7.40
2017-11-13T15:12:04.310Z,8.27
2017-11-13T15:14:33.568Z,7.80
2017-11-13T15:17:02.270Z,7.50
2017-11-13T15:19:30.754Z,6.83
2017-11-13T15:21:59.046Z,9.10
2017-11-13T15:24:27.341Z,7.20
2017-11-13T15:26:56.568Z,7.27
2017-11-13T15:29:24.877Z,8.63
2017-11-13T15:31:54.352Z,6.13
2017-11-13T15:34:23.148Z,7.57
2017-11-13T15:36:51.612Z,8.03
2017-11-13T15:39:20.097Z,8.83
2017-11-13T15:41:48.563Z,8.23
2017-11-13T15:44:17.807Z,9.50
2017-11-13T15:46:47.300Z,8.77
2017-11-13T15:49:16.829Z,8.63
2017-11-13T15:51:46.354Z,7.45
2017-11-13T15:54:14.833Z,10.77
2017-11-13T15:56:43.587Z,9.35
2017-11-13T15:59:12.092Z,12.53
2017-11-13T16:01:40.609Z,13.13
2017-11-13T16:04:09.385Z,15.90
2017-11-13T16:06:37.889Z,10.73
2017-11-13T16:09:07.238Z,12.00
2017-11-13T16:11:35.729Z,10.80
2017-11-13T16:14:03.860Z,10.67
2017-11-13T16:16:32.352Z,9.90
2017-11-13T16:19:01.161Z,8.27
2017-11-13T16:21:29.638Z,11.40
2017-11-13T16:23:58.122Z,13.43
2017-11-13T16:26:26.628Z,15.47
2017-11-13T16:28:54.942Z,13.10
2017-11-13T16:31:23.481Z,12.48
2017-11-13T16:33:52.824Z,8.55
2017-11-13T16:36:21.320Z,11.40
2017-11-13T16:38:50.129Z,13.33
2017-11-13T16:41:18.440Z,11.40
2017-11-13T16:43:46.917Z,12.07
2017-11-13T16:46:15.672Z,16.55
2017-11-13T16:48:44.425Z,15.75
2017-11-13T16:51:13.177Z,18.20
2017-11-13T16:53:41.674Z,20.13
2017-11-13T16:56:10.428Z,12.45
2017-11-13T16:58:38.920Z,13.07
2017-11-13T17:01:07.407Z,12.10
2017-11-13T17:03:36.913Z,12.25
2017-11-13T17:06:05.484Z,13.70
2017-11-13T17:08:33.972Z,11.43
2017-11-13T17:11:02.482Z,10.57
2017-11-13T17:13:31.097Z,16.93
2017-11-13T17:15:59.582Z,15.83
2017-11-13T17:18:28.332Z,12.70
2017-11-13T17:20:56.863Z,13.57
2017-11-13T17:23:25.357Z,8.90
2017-11-13T17:25:54.602Z,17.50
2017-11-13T17:28:24.119Z,11.98
2017-11-13T17:30:52.583Z,12.20
2017-11-13T17:33:21.086Z,14.63
2017-11-13T17:35:49.850Z,20.08
2017-11-13T17:38:18.352Z,14.77
2017-11-13T17:40:46.888Z,13.17
2017-11-13T17:43:15.389Z,12.70
2017-11-13T17:45:43.721Z,13.17
2017-11-13T17:48:12.465Z,15.65
2017-11-13T17:50:42.112Z,15.93
2017-11-13T17:53:10.611Z,12.13
2017-11-13T17:55:39.202Z,15.67
2017-11-13T17:58:08.477Z,16.47
2017-11-13T18:00:36.943Z,14.83
2017-11-13T18:03:05.436Z,15.27
2017-11-13T18:05:33.923Z,18.77
2017-11-13T18:08:02.423Z,22.17
2017-11-13T18:10:30.889Z,14.63
2017-11-13T18:12:59.360Z,14.87
2017-11-13T18:15:27.642Z,15.07
2017-11-13T18:17:56.112Z,12.97
2017-11-13T18:20:24.637Z,16.97
2017-11-13T18:22:53.484Z,15.95
2017-11-13T18:25:22.235Z,13.23
2017-11-13T18:27:51.464Z,18.90
2017-11-13T18:30:19.953Z,17.20
2017-11-13T18:32:48.503Z,17.07
2017-11-13T18:35:17.013Z,11.47
2017-11-13T18:37:45.521Z,19.43
2017-11-13T18:40:14.013Z,15.03
2017-11-13T18:42:46.423Z,17.33
2017-11-13T18:45:14.928Z,15.47
2017-11-13T18:47:43.434Z,18.10
2017-11-13T18:50:11.909Z,14.30
2017-11-13T18:52:40.756Z,20.90
2017-11-13T18:55:10.017Z,20.10
2017-11-13T18:57:39.020Z,19.00
2017-11-13T19:00:07.294Z,20.40
2017-11-13T19:02:36.805Z,21.17
2017-11-13T19:05:05.322Z,22.73
2017-11-13T19:07:34.575Z,21.87
2017-11-13T19:10:03.198Z,23.70
2017-11-13T19:12:32.287Z,23.27
2017-11-13T19:15:00.536Z,21.27
2017-11-13T19:17:29.062Z,18.23
2017-11-13T19:19:58.318Z,21.23
2017-11-13T19:22:26.816Z,28.30
2017-11-13T19:24:55.325Z,20.53
2017-11-13T19:27:24.769Z,18.47
2017-11-13T19:29:53.422Z,21.50
2017-11-13T19:32:22.704Z,21.43
2017-11-13T19:34:52.764Z,20.20
2017-11-13T19:37:21.280Z,22.70
2017-11-13T19:39:49.921Z,25.43
2017-11-13T19:42:19.189Z,23.80
2017-11-13T19:44:47.717Z,27.13
2017-11-13T19:47:16.220Z,24.70
2017-11-13T19:49:45.838Z,28.30
2017-11-13T19:52:14.428Z,20.23
2017-11-13T19:54:42.932Z,25.70
2017-11-13T19:57:11.463Z,21.63
2017-11-13T19:59:39.964Z,22.13
2017-11-13T20:02:08.487Z,20.40
2017-11-13T20:04:37.079Z,21.77
2017-11-13T20:07:06.500Z,22.87
2017-11-13T20:09:35.306Z,19.50
2017-11-13T20:12:04.215Z,21.90
2017-11-13T20:14:33.264Z,23.75
2017-11-13T20:17:02.048Z,23.13
2017-11-13T20:19:30.819Z,24.43
2017-11-13T20:21:59.911Z,22.52
2017-11-13T20:24:28.951Z,19.23
2017-11-13T20:26:57.629Z,28.70
2017-11-13T20:29:26.207Z,22.30
2017-11-13T20:31:55.520Z,28.10
2017-11-13T20:34:24.352Z,25.67
2017-11-13T20:36:53.268Z,25.15
2017-11-13T20:39:22.065Z,25.73
2017-11-13T20:41:50.576Z,33.03
2017-11-13T20:44:19.871Z,24.40
2017-11-13T20:46:49.181Z,33.30
2017-11-13T20:49:17.832Z,24.42
2017-11-13T20:51:46.411Z,26.98
2017-11-13T20:54:14.872Z,28.10
2017-11-13T20:56:43.396Z,30.03
2017-11-13T20:59:12.159Z,34.83
2017-11-13T21:01:40.747Z,30.20
2017-11-13T21:04:09.544Z,33.92
2017-11-13T21:06:38.043Z,25.60
2017-11-13T21:09:06.827Z,30.75
2017-11-13T21:11:35.611Z,35.53
2017-11-13T21:14:04.620Z,23.83
2017-11-13T21:16:33.438Z,22.40
2017-11-13T21:19:02.200Z,22.00
2017-11-13T21:21:30.976Z,19.25
2017-11-13T21:23:59.785Z,23.73
2017-11-13T21:26:28.559Z,24.23
2017-11-13T21:28:57.304Z,26.80
2017-11-13T21:31:26.832Z,20.62
2017-11-13T21:33:55.651Z,21.55
2017-11-13T21:36:24.412Z,25.60
2017-11-13T21:38:53.210Z,20.37
2017-11-13T21:41:22.227Z,26.05
2017-11-13T21:43:50.990Z,25.77
2017-11-13T21:46:19.770Z,30.10
2017-11-13T21:48:48.582Z,29.42
2017-11-13T21:51:17.371Z,23.75
2017-11-13T21:53:46.118Z,29.65
2017-11-13T21:56:14.875Z,24.83
2017-11-13T21:58:43.638Z,26.15
2017-11-13T22:01:12.425Z,21.62
2017-11-13T22:03:41.194Z,27.23
2017-11-13T22:06:09.976Z,24.17
2017-11-13T22:08:39.507Z,27.75
2017-11-13T22:11:08.005Z,26.60
2017-11-13T22:13:36.776Z,27.75
2017-11-13T22:16:05.248Z,29.65
2017-11-13T22:18:33.912Z,29.55
2017-11-13T22:21:03.260Z,24.90
2017-11-13T22:23:32.112Z,18.92
2017-11-13T22:26:01.663Z,28.30
2017-11-13T22:28:30.467Z,21.15
2017-11-13T22:30:59.240Z,24.02
2017-11-13T22:33:27.327Z,23.30
2017-11-13T22:35:55.916Z,25.25
2017-11-13T22:38:24.505Z,20.50
2017-11-13T22:40:53.088Z,29.85
2017-11-13T22:43:22.669Z,21.00
2017-11-13T22:45:51.364Z,24.40
2017-11-13T22:48:20.129Z,24.85
2017-11-13T22:50:48.900Z,24.23
2017-11-13T22:53:17.709Z,19.25
2017-11-13T22:55:46.488Z,21.83
2017-11-13T22:58:15.263Z,22.75
2017-11-13T23:00:44.792Z,17.08
2017-11-13T23:03:13.538Z,20.45
2017-11-13T23:05:42.356Z,22.98
2017-11-13T23:08:11.361Z,26.17
2017-11-13T23:10:40.139Z,25.05
2017-11-13T23:13:08.897Z,17.30
2017-11-13T23:15:37.666Z,19.37
2017-11-13T23:18:06.423Z,17.52
2017-11-13T23:20:35.196Z,19.77
2017-11-13T23:23:04.740Z,16.30
2017-11-13T23:25:33.500Z,15.80
2017-11-13T23:28:02.262Z,20.08
2017-11-13T23:30:31.028Z,19.55
2017-11-13T23:32:59.815Z,23.05
2017-11-13T23:35:28.677Z,26.33
2017-11-13T23:37:57.453Z,24.30
2017-11-13T23:40:26.973Z,26.77
2017-11-13T23:42:55.744Z,32.40
2017-11-13T23:45:24.487Z,23.48
2017-11-13T23:47:53.253Z,27.77
2017-11-13T23:50:22.648Z,26.83
2017-11-13T23:52:51.419Z,28.20
2017-11-13T23:55:20.743Z,27.27
2017-11-13T23:57:49.500Z,23.62
